sensor_id;sensor_type;location;lat;lon;timestamp;P1;durP1;ratioP1;P2;durP2;ratioP2
80273;SDS011;69576;51.902;-8.462;2024-03-17T00:00:31;10.38;;;3.38;;
80273;SDS011;69576;51.902;-8.462;2024-03-17T00:03:00;12.85;;;3.08;;
80273;SDS011;69576;51.902;-8.462;2024-03-17T00:05:25;11.27;;;2.60;;
80273;SDS011;69576;51.902;-8.462;2024-03-17T00:07:52;10.55;;;2.90;;
80273;SDS011;69576;51.902;-8.462;2024-03-17T00:10:19;7.45;;;2.55;;
80273;SDS011;69576;51.902;-8.462;2024-03-17T00:12:45;10.23;;;2.75;;
80273;SDS011;69576;51.902;-8.462;2024-03-17T00:15:11;11.77;;;3.15;;
80273;SDS011;69576;51.902;-8.462;2024-03-17T00:17:37;9.32;;;2.83;;
80273;SDS011;69576;51.902;-8.462;2024-03-17T00:20:05;10.77;;;3.55;;
80273;SDS011;69576;51.902;-8.462;2024-03-17T00:22:39;10.70;;;3.35;;
80273;SDS011;69576;51.902;-8.462;2024-03-17T00:25:06;12.07;;;2.72;;
80273;SDS011;69576;51.902;-8.462;2024-03-17T00:27:34;13.95;;;3.30;;
80273;SDS011;69576;51.902;-8.462;2024-03-17T00:30:05;12.57;;;3.45;;
80273;SDS011;69576;51.902;-8.462;2024-03-17T00:32:37;11.15;;;3.22;;
80273;SDS011;69576;51.902;-8.462;2024-03-17T00:35:07;10.90;;;2.80;;
80273;SDS011;69576;51.902;-8.462;2024-03-17T00:37:36;14.05;;;3.85;;
80273;SDS011;69576;51.902;-8.462;2024-03-17T00:40:03;9.60;;;3.28;;
80273;SDS011;69576;51.902;-8.462;2024-03-17T00:42:29;11.38;;;2.92;;
80273;SDS011;69576;51.902;-8.462;2024-03-17T00:44:57;6.18;;;2.88;;
80273;SDS011;69576;51.902;-8.462;2024-03-17T00:47:25;6.63;;;2.80;;
80273;SDS011;69576;51.902;-8.462;2024-03-17T00:49:54;12.50;;;3.50;;
80273;SDS011;69576;51.902;-8.462;2024-03-17T00:52:22;9.77;;;3.50;;
80273;SDS011;69576;51.902;-8.462;2024-03-17T00:54:48;8.70;;;2.75;;
80273;SDS011;69576;51.902;-8.462;2024-03-17T00:57:16;8.32;;;2.92;;
80273;SDS011;69576;51.902;-8.462;2024-03-17T00:59:42;10.85;;;3.65;;
80273;SDS011;69576;51.902;-8.462;2024-03-17T01:02:09;9.13;;;2.47;;
80273;SDS011;69576;51.902;-8.462;2024-03-17T01:04:44;9.00;;;3.03;;
80273;SDS011;69576;51.902;-8.462;2024-03-17T01:07:10;5.28;;;2.45;;
80273;SDS011;69576;51.902;-8.462;2024-03-17T01:09:36;5.45;;;2.80;;
80273;SDS011;69576;51.902;-8.462;2024-03-17T01:12:04;4.90;;;2.42;;
80273;SDS011;69576;51.902;-8.462;2024-03-17T01:14:33;9.40;;;2.67;;
80273;SDS011;69576;51.902;-8.462;2024-03-17T01:17:06;5.43;;;2.75;;
80273;SDS011;69576;51.902;-8.462;2024-03-17T01:19:37;5.38;;;2.78;;
80273;SDS011;69576;51.902;-8.462;2024-03-17T01:22:05;8.80;;;2.50;;
80273;SDS011;69576;51.902;-8.462;2024-03-17T01:24:32;4.18;;;2.45;;
80273;SDS011;69576;51.902;-8.462;2024-03-17T01:26:59;6.00;;;2.95;;
80273;SDS011;69576;51.902;-8.462;2024-03-17T01:29:25;4.70;;;2.85;;
80273;SDS011;69576;51.902;-8.462;2024-03-17T01:31:56;6.68;;;2.63;;
80273;SDS011;69576;51.902;-8.462;2024-03-17T01:34:21;6.10;;;2.50;;
80273;SDS011;69576;51.902;-8.462;2024-03-17T01:36:47;7.18;;;2.35;;
80273;SDS011;69576;51.902;-8.462;2024-03-17T01:39:13;11.05;;;3.30;;
80273;SDS011;69576;51.902;-8.462;2024-03-17T01:41:40;4.93;;;2.70;;
80273;SDS011;69576;51.902;-8.462;2024-03-17T01:44:21;6.25;;;2.63;;
80273;SDS011;69576;51.902;-8.462;2024-03-17T01:46:48;8.52;;;2.75;;
80273;SDS011;69576;51.902;-8.462;2024-03-17T01:49:17;11.98;;;2.90;;
80273;SDS011;69576;51.902;-8.462;2024-03-17T01:51:44;5.78;;;2.65;;
80273;SDS011;69576;51.902;-8.462;2024-03-17T01:54:14;4.85;;;2.20;;
80273;SDS011;69576;51.902;-8.462;2024-03-17T01:56:40;5.82;;;2.50;;
80273;SDS011;69576;51.902;-8.462;2024-03-17T01:59:07;6.30;;;2.70;;
80273;SDS011;69576;51.902;-8.462;2024-03-17T02:01:34;8.27;;;2.65;;
80273;SDS011;69576;51.902;-8.462;2024-03-17T02:04:01;7.00;;;2.22;;
80273;SDS011;69576;51.902;-8.462;2024-03-17T02:06:27;6.25;;;2.35;;
80273;SDS011;69576;51.902;-8.462;2024-03-17T02:08:53;5.50;;;2.05;;
80273;SDS011;69576;51.902;-8.462;2024-03-17T02:13:58;5.20;;;2.33;;
80273;SDS011;69576;51.902;-8.462;2024-03-17T02:16:25;4.78;;;2.22;;
80273;SDS011;69576;51.902;-8.462;2024-03-17T02:18:55;6.00;;;2.22;;
80273;SDS011;69576;51.902;-8.462;2024-03-17T02:21:21;4.38;;;2.00;;
80273;SDS011;69576;51.902;-8.462;2024-03-17T02:23:49;8.65;;;2.60;;
80273;SDS011;69576;51.902;-8.462;2024-03-17T02:26:21;7.90;;;2.50;;
80273;SDS011;69576;51.902;-8.462;2024-03-17T02:28:47;5.05;;;2.22;;
80273;SDS011;69576;51.902;-8.462;2024-03-17T02:31:16;4.72;;;2.45;;
80273;SDS011;69576;51.902;-8.462;2024-03-17T02:33:43;4.03;;;1.60;;
80273;SDS011;69576;51.902;-8.462;2024-03-17T02:36:09;4.47;;;1.80;;
80273;SDS011;69576;51.902;-8.462;2024-03-17T02:38:42;9.93;;;2.30;;
80273;SDS011;69576;51.902;-8.462;2024-03-17T02:41:29;5.03;;;1.83;;
80273;SDS011;69576;51.902;-8.462;2024-03-17T02:43:55;4.50;;;2.08;;
80273;SDS011;69576;51.902;-8.462;2024-03-17T02:46:20;8.52;;;2.53;;
80273;SDS011;69576;51.902;-8.462;2024-03-17T02:48:49;4.45;;;2.25;;
80273;SDS011;69576;51.902;-8.462;2024-03-17T02:51:17;5.20;;;1.85;;
80273;SDS011;69576;51.902;-8.462;2024-03-17T02:53:44;3.33;;;2.15;;
80273;SDS011;69576;51.902;-8.462;2024-03-17T02:56:11;5.95;;;2.35;;
80273;SDS011;69576;51.902;-8.462;2024-03-17T02:58:37;4.28;;;1.80;;
80273;SDS011;69576;51.902;-8.462;2024-03-17T03:01:06;4.20;;;2.15;;
80273;SDS011;69576;51.902;-8.462;2024-03-17T03:03:33;4.13;;;2.10;;
80273;SDS011;69576;51.902;-8.462;2024-03-17T03:06:00;4.45;;;2.22;;
80273;SDS011;69576;51.902;-8.462;2024-03-17T03:08:29;4.55;;;1.83;;
80273;SDS011;69576;51.902;-8.462;2024-03-17T03:10:58;4.22;;;1.95;;
80273;SDS011;69576;51.902;-8.462;2024-03-17T03:13:26;2.75;;;1.60;;
80273;SDS011;69576;51.902;-8.462;2024-03-17T03:15:54;6.68;;;2.40;;
80273;SDS011;69576;51.902;-8.462;2024-03-17T03:18:20;5.93;;;2.00;;
80273;SDS011;69576;51.902;-8.462;2024-03-17T03:20:51;6.32;;;2.08;;
80273;SDS011;69576;51.902;-8.462;2024-03-17T03:23:17;10.65;;;2.47;;
80273;SDS011;69576;51.902;-8.462;2024-03-17T03:25:44;11.77;;;1.92;;
80273;SDS011;69576;51.902;-8.462;2024-03-17T03:28:11;8.80;;;2.58;;
80273;SDS011;69576;51.902;-8.462;2024-03-17T03:30:37;8.60;;;3.38;;
80273;SDS011;69576;51.902;-8.462;2024-03-17T03:33:06;13.23;;;2.75;;
80273;SDS011;69576;51.902;-8.462;2024-03-17T03:35:34;6.43;;;1.92;;
80273;SDS011;69576;51.902;-8.462;2024-03-17T03:38:00;5.45;;;2.53;;
80273;SDS011;69576;51.902;-8.462;2024-03-17T03:40:28;9.38;;;3.33;;
80273;SDS011;69576;51.902;-8.462;2024-03-17T03:42:54;9.73;;;3.45;;
80273;SDS011;69576;51.902;-8.462;2024-03-17T03:45:20;11.65;;;3.05;;
80273;SDS011;69576;51.902;-8.462;2024-03-17T03:47:45;6.07;;;2.38;;
80273;SDS011;69576;51.902;-8.462;2024-03-17T03:50:15;10.68;;;2.70;;
80273;SDS011;69576;51.902;-8.462;2024-03-17T03:52:44;10.50;;;1.98;;
80273;SDS011;69576;51.902;-8.462;2024-03-17T03:55:11;14.07;;;2.67;;
80273;SDS011;69576;51.902;-8.462;2024-03-17T03:57:41;10.65;;;2.60;;
80273;SDS011;69576;51.902;-8.462;2024-03-17T04:00:11;7.57;;;2.45;;
80273;SDS011;69576;51.902;-8.462;2024-03-17T04:02:47;10.63;;;2.65;;
80273;SDS011;69576;51.902;-8.462;2024-03-17T04:05:17;12.02;;;2.30;;
80273;SDS011;69576;51.902;-8.462;2024-03-17T04:07:43;12.57;;;2.83;;
80273;SDS011;69576;51.902;-8.462;2024-03-17T04:10:15;12.90;;;3.05;;
80273;SDS011;69576;51.902;-8.462;2024-03-17T04:12:44;12.25;;;3.47;;
80273;SDS011;69576;51.902;-8.462;2024-03-17T04:15:10;9.77;;;2.38;;
80273;SDS011;69576;51.902;-8.462;2024-03-17T04:17:36;14.38;;;2.85;;
80273;SDS011;69576;51.902;-8.462;2024-03-17T04:20:02;10.55;;;2.60;;
80273;SDS011;69576;51.902;-8.462;2024-03-17T04:22:32;16.48;;;2.75;;
80273;SDS011;69576;51.902;-8.462;2024-03-17T04:24:58;10.43;;;2.97;;
80273;SDS011;69576;51.902;-8.462;2024-03-17T04:27:24;13.10;;;2.35;;
80273;SDS011;69576;51.902;-8.462;2024-03-17T04:29:51;14.38;;;2.88;;
80273;SDS011;69576;51.902;-8.462;2024-03-17T04:32:17;9.50;;;2.28;;
80273;SDS011;69576;51.902;-8.462;2024-03-17T04:34:43;11.80;;;2.55;;
80273;SDS011;69576;51.902;-8.462;2024-03-17T04:37:09;4.95;;;1.73;;
80273;SDS011;69576;51.902;-8.462;2024-03-17T04:39:38;10.23;;;2.55;;
80273;SDS011;69576;51.902;-8.462;2024-03-17T04:42:05;5.40;;;1.55;;
80273;SDS011;69576;51.902;-8.462;2024-03-17T04:44:32;4.20;;;2.10;;
80273;SDS011;69576;51.902;-8.462;2024-03-17T04:46:59;7.13;;;1.67;;
80273;SDS011;69576;51.902;-8.462;2024-03-17T04:49:25;4.82;;;1.67;;
80273;SDS011;69576;51.902;-8.462;2024-03-17T04:51:51;14.57;;;2.25;;
80273;SDS011;69576;51.902;-8.462;2024-03-17T04:54:17;12.23;;;1.98;;
80273;SDS011;69576;51.902;-8.462;2024-03-17T04:56:42;3.95;;;1.85;;
80273;SDS011;69576;51.902;-8.462;2024-03-17T04:59:12;9.88;;;2.45;;
80273;SDS011;69576;51.902;-8.462;2024-03-17T05:01:37;11.45;;;1.95;;
80273;SDS011;69576;51.902;-8.462;2024-03-17T05:04:03;5.60;;;1.90;;
80273;SDS011;69576;51.902;-8.462;2024-03-17T05:06:29;10.18;;;1.92;;
80273;SDS011;69576;51.902;-8.462;2024-03-17T05:08:55;8.05;;;2.35;;
80273;SDS011;69576;51.902;-8.462;2024-03-17T05:11:23;6.35;;;2.13;;
80273;SDS011;69576;51.902;-8.462;2024-03-17T05:13:51;6.47;;;1.67;;
80273;SDS011;69576;51.902;-8.462;2024-03-17T05:16:17;11.88;;;2.50;;
80273;SDS011;69576;51.902;-8.462;2024-03-17T05:18:43;9.57;;;2.45;;
80273;SDS011;69576;51.902;-8.462;2024-03-17T05:21:09;10.55;;;2.60;;
80273;SDS011;69576;51.902;-8.462;2024-03-17T05:23:35;11.68;;;2.10;;
80273;SDS011;69576;51.902;-8.462;2024-03-17T05:26:02;12.77;;;2.33;;
80273;SDS011;69576;51.902;-8.462;2024-03-17T05:28:31;11.00;;;1.75;;
80273;SDS011;69576;51.902;-8.462;2024-03-17T05:30:57;6.40;;;1.70;;
80273;SDS011;69576;51.902;-8.462;2024-03-17T05:33:24;9.75;;;2.00;;
80273;SDS011;69576;51.902;-8.462;2024-03-17T05:35:51;9.63;;;1.95;;
80273;SDS011;69576;51.902;-8.462;2024-03-17T05:38:20;8.98;;;2.47;;
80273;SDS011;69576;51.902;-8.462;2024-03-17T05:40:56;10.70;;;2.00;;
80273;SDS011;69576;51.902;-8.462;2024-03-17T05:43:25;12.55;;;2.45;;
80273;SDS011;69576;51.902;-8.462;2024-03-17T05:45:52;11.77;;;2.95;;
80273;SDS011;69576;51.902;-8.462;2024-03-17T05:48:25;9.88;;;2.33;;
80273;SDS011;69576;51.902;-8.462;2024-03-17T05:50:52;8.10;;;2.33;;
80273;SDS011;69576;51.902;-8.462;2024-03-17T05:53:21;11.90;;;2.50;;
80273;SDS011;69576;51.902;-8.462;2024-03-17T05:55:50;10.38;;;2.13;;
80273;SDS011;69576;51.902;-8.462;2024-03-17T05:58:16;10.68;;;2.30;;
80273;SDS011;69576;51.902;-8.462;2024-03-17T06:00:44;8.23;;;2.17;;
80273;SDS011;69576;51.902;-8.462;2024-03-17T06:03:12;10.40;;;2.28;;
80273;SDS011;69576;51.902;-8.462;2024-03-17T06:05:39;9.23;;;2.20;;
80273;SDS011;69576;51.902;-8.462;2024-03-17T06:08:09;10.13;;;2.58;;
80273;SDS011;69576;51.902;-8.462;2024-03-17T06:10:36;7.75;;;1.83;;
80273;SDS011;69576;51.902;-8.462;2024-03-17T06:13:03;13.23;;;2.53;;
80273;SDS011;69576;51.902;-8.462;2024-03-17T06:15:37;11.60;;;2.00;;
80273;SDS011;69576;51.902;-8.462;2024-03-17T06:18:03;9.05;;;2.40;;
80273;SDS011;69576;51.902;-8.462;2024-03-17T06:20:29;5.75;;;2.60;;
80273;SDS011;69576;51.902;-8.462;2024-03-17T06:23:00;9.88;;;2.40;;
80273;SDS011;69576;51.902;-8.462;2024-03-17T06:25:26;8.38;;;1.70;;
80273;SDS011;69576;51.902;-8.462;2024-03-17T06:27:54;8.70;;;2.13;;
80273;SDS011;69576;51.902;-8.462;2024-03-17T06:30:22;14.40;;;2.35;;
80273;SDS011;69576;51.902;-8.462;2024-03-17T06:32:47;4.78;;;1.70;;
80273;SDS011;69576;51.902;-8.462;2024-03-17T06:35:14;6.55;;;1.67;;
80273;SDS011;69576;51.902;-8.462;2024-03-17T06:37:43;6.53;;;1.63;;
80273;SDS011;69576;51.902;-8.462;2024-03-17T06:40:13;7.15;;;1.52;;
80273;SDS011;69576;51.902;-8.462;2024-03-17T06:42:42;4.72;;;1.38;;
80273;SDS011;69576;51.902;-8.462;2024-03-17T06:45:10;11.93;;;2.00;;
80273;SDS011;69576;51.902;-8.462;2024-03-17T06:47:36;5.05;;;1.50;;
80273;SDS011;69576;51.902;-8.462;2024-03-17T06:50:03;6.07;;;1.50;;
80273;SDS011;69576;51.902;-8.462;2024-03-17T06:52:32;4.47;;;1.52;;
80273;SDS011;69576;51.902;-8.462;2024-03-17T06:54:57;7.45;;;1.63;;
80273;SDS011;69576;51.902;-8.462;2024-03-17T06:57:23;6.28;;;1.30;;
80273;SDS011;69576;51.902;-8.462;2024-03-17T06:59:49;9.27;;;2.08;;
80273;SDS011;69576;51.902;-8.462;2024-03-17T07:02:18;3.60;;;1.25;;
80273;SDS011;69576;51.902;-8.462;2024-03-17T07:04:46;4.53;;;1.40;;
80273;SDS011;69576;51.902;-8.462;2024-03-17T07:07:13;7.80;;;1.95;;
80273;SDS011;69576;51.902;-8.462;2024-03-17T07:12:07;4.78;;;1.40;;
80273;SDS011;69576;51.902;-8.462;2024-03-17T07:14:34;5.90;;;1.65;;
80273;SDS011;69576;51.902;-8.462;2024-03-17T07:17:00;4.40;;;1.10;;
80273;SDS011;69576;51.902;-8.462;2024-03-17T07:19:25;4.30;;;1.20;;
80273;SDS011;69576;51.902;-8.462;2024-03-17T07:21:51;1.08;;;0.60;;
80273;SDS011;69576;51.902;-8.462;2024-03-17T07:24:17;5.32;;;1.73;;
80273;SDS011;69576;51.902;-8.462;2024-03-17T07:26:43;5.00;;;1.00;;
80273;SDS011;69576;51.902;-8.462;2024-03-17T07:29:08;6.72;;;1.10;;
80273;SDS011;69576;51.902;-8.462;2024-03-17T07:31:36;1.73;;;0.90;;
80273;SDS011;69576;51.902;-8.462;2024-03-17T07:34:02;6.65;;;1.73;;
80273;SDS011;69576;51.902;-8.462;2024-03-17T07:36:27;1.60;;;0.68;;
80273;SDS011;69576;51.902;-8.462;2024-03-17T07:38:53;1.83;;;0.57;;
80273;SDS011;69576;51.902;-8.462;2024-03-17T07:41:19;3.17;;;1.38;;
80273;SDS011;69576;51.902;-8.462;2024-03-17T07:43:45;4.85;;;1.20;;
80273;SDS011;69576;51.902;-8.462;2024-03-17T07:46:11;2.55;;;1.17;;
80273;SDS011;69576;51.902;-8.462;2024-03-17T07:48:38;2.30;;;1.13;;
80273;SDS011;69576;51.902;-8.462;2024-03-17T07:51:06;1.23;;;0.60;;
80273;SDS011;69576;51.902;-8.462;2024-03-17T07:53:34;2.28;;;0.80;;
80273;SDS011;69576;51.902;-8.462;2024-03-17T07:56:01;0.75;;;0.75;;
80273;SDS011;69576;51.902;-8.462;2024-03-17T07:58:28;0.60;;;0.60;;
80273;SDS011;69576;51.902;-8.462;2024-03-17T08:01:02;2.35;;;0.63;;
80273;SDS011;69576;51.902;-8.462;2024-03-17T08:03:35;1.52;;;0.73;;
80273;SDS011;69576;51.902;-8.462;2024-03-17T08:06:03;1.92;;;0.80;;
80273;SDS011;69576;51.902;-8.462;2024-03-17T08:08:30;1.00;;;0.95;;
80273;SDS011;69576;51.902;-8.462;2024-03-17T08:10:56;0.65;;;0.60;;
80273;SDS011;69576;51.902;-8.462;2024-03-17T08:13:22;1.10;;;0.75;;
80273;SDS011;69576;51.902;-8.462;2024-03-17T08:15:58;0.70;;;0.70;;
80273;SDS011;69576;51.902;-8.462;2024-03-17T08:18:26;1.90;;;1.20;;
80273;SDS011;69576;51.902;-8.462;2024-03-17T08:20:54;0.80;;;0.68;;
80273;SDS011;69576;51.902;-8.462;2024-03-17T08:23:22;0.95;;;0.55;;
80273;SDS011;69576;51.902;-8.462;2024-03-17T08:25:55;0.93;;;0.90;;
80273;SDS011;69576;51.902;-8.462;2024-03-17T08:28:22;3.88;;;1.08;;
80273;SDS011;69576;51.902;-8.462;2024-03-17T08:30:55;2.03;;;0.90;;
80273;SDS011;69576;51.902;-8.462;2024-03-17T08:33:23;1.35;;;0.80;;
80273;SDS011;69576;51.902;-8.462;2024-03-17T08:35:56;2.50;;;0.80;;
80273;SDS011;69576;51.902;-8.462;2024-03-17T08:38:23;2.85;;;0.88;;
80273;SDS011;69576;51.902;-8.462;2024-03-17T08:40:52;2.22;;;0.80;;
80273;SDS011;69576;51.902;-8.462;2024-03-17T08:43:19;3.20;;;1.38;;
80273;SDS011;69576;51.902;-8.462;2024-03-17T08:48:27;0.98;;;0.60;;
80273;SDS011;69576;51.902;-8.462;2024-03-17T08:50:54;4.07;;;0.77;;
80273;SDS011;69576;51.902;-8.462;2024-03-17T08:53:20;4.10;;;0.68;;
80273;SDS011;69576;51.902;-8.462;2024-03-17T08:55:46;1.27;;;0.65;;
80273;SDS011;69576;51.902;-8.462;2024-03-17T08:58:13;1.38;;;0.90;;
80273;SDS011;69576;51.902;-8.462;2024-03-17T09:00:39;0.90;;;0.65;;
80273;SDS011;69576;51.902;-8.462;2024-03-17T09:03:08;0.57;;;0.52;;
80273;SDS011;69576;51.902;-8.462;2024-03-17T09:05:38;4.07;;;1.08;;
80273;SDS011;69576;51.902;-8.462;2024-03-17T09:08:07;1.75;;;0.65;;
80273;SDS011;69576;51.902;-8.462;2024-03-17T09:10:42;0.80;;;0.80;;
80273;SDS011;69576;51.902;-8.462;2024-03-17T09:13:17;1.05;;;0.80;;
80273;SDS011;69576;51.902;-8.462;2024-03-17T09:15:58;2.08;;;0.70;;
80273;SDS011;69576;51.902;-8.462;2024-03-17T09:18:28;0.52;;;0.50;;
80273;SDS011;69576;51.902;-8.462;2024-03-17T09:21:05;1.17;;;0.85;;
80273;SDS011;69576;51.902;-8.462;2024-03-17T09:23:35;2.42;;;1.20;;
80273;SDS011;69576;51.902;-8.462;2024-03-17T09:26:05;5.80;;;1.02;;
80273;SDS011;69576;51.902;-8.462;2024-03-17T09:28:36;1.45;;;0.82;;
80273;SDS011;69576;51.902;-8.462;2024-03-17T09:31:02;1.08;;;0.65;;
80273;SDS011;69576;51.902;-8.462;2024-03-17T09:33:32;1.13;;;0.80;;
80273;SDS011;69576;51.902;-8.462;2024-03-17T09:36:03;0.63;;;0.63;;
80273;SDS011;69576;51.902;-8.462;2024-03-17T09:38:34;2.40;;;1.00;;
80273;SDS011;69576;51.902;-8.462;2024-03-17T09:41:00;0.82;;;0.55;;
80273;SDS011;69576;51.902;-8.462;2024-03-17T09:43:27;3.33;;;1.23;;
80273;SDS011;69576;51.902;-8.462;2024-03-17T09:45:54;2.47;;;1.10;;
80273;SDS011;69576;51.902;-8.462;2024-03-17T09:48:22;4.20;;;0.82;;
80273;SDS011;69576;51.902;-8.462;2024-03-17T09:50:58;2.38;;;1.33;;
80273;SDS011;69576;51.902;-8.462;2024-03-17T09:53:26;6.25;;;1.65;;
80273;SDS011;69576;51.902;-8.462;2024-03-17T09:56:00;4.63;;;1.85;;
80273;SDS011;69576;51.902;-8.462;2024-03-17T09:58:48;6.20;;;1.40;;
80273;SDS011;69576;51.902;-8.462;2024-03-17T10:01:15;3.55;;;0.80;;
80273;SDS011;69576;51.902;-8.462;2024-03-17T10:06:10;5.07;;;2.42;;
80273;SDS011;69576;51.902;-8.462;2024-03-17T10:08:56;7.18;;;3.92;;
80273;SDS011;69576;51.902;-8.462;2024-03-17T10:11:32;8.13;;;2.40;;
80273;SDS011;69576;51.902;-8.462;2024-03-17T10:14:02;4.70;;;1.58;;
80273;SDS011;69576;51.902;-8.462;2024-03-17T10:16:29;3.42;;;1.13;;
80273;SDS011;69576;51.902;-8.462;2024-03-17T10:19:06;8.88;;;2.13;;
80273;SDS011;69576;51.902;-8.462;2024-03-17T10:21:38;3.60;;;1.60;;
80273;SDS011;69576;51.902;-8.462;2024-03-17T10:24:12;6.13;;;1.90;;
80273;SDS011;69576;51.902;-8.462;2024-03-17T10:26:52;3.33;;;1.42;;
80273;SDS011;69576;51.902;-8.462;2024-03-17T10:29:27;6.72;;;1.80;;
80273;SDS011;69576;51.902;-8.462;2024-03-17T10:31:58;6.18;;;1.90;;
80273;SDS011;69576;51.902;-8.462;2024-03-17T10:34:43;6.25;;;2.00;;
80273;SDS011;69576;51.902;-8.462;2024-03-17T10:37:10;8.02;;;1.75;;
80273;SDS011;69576;51.902;-8.462;2024-03-17T10:39:43;5.00;;;2.03;;
80273;SDS011;69576;51.902;-8.462;2024-03-17T10:42:10;6.93;;;1.70;;
80273;SDS011;69576;51.902;-8.462;2024-03-17T10:44:39;7.90;;;2.17;;
80273;SDS011;69576;51.902;-8.462;2024-03-17T10:47:12;6.03;;;1.50;;
80273;SDS011;69576;51.902;-8.462;2024-03-17T10:49:46;8.07;;;2.33;;
80273;SDS011;69576;51.902;-8.462;2024-03-17T10:52:17;9.95;;;2.95;;
80273;SDS011;69576;51.902;-8.462;2024-03-17T10:54:51;11.23;;;3.25;;
80273;SDS011;69576;51.902;-8.462;2024-03-17T10:59:56;10.23;;;3.92;;
80273;SDS011;69576;51.902;-8.462;2024-03-17T11:02:24;5.30;;;2.03;;
80273;SDS011;69576;51.902;-8.462;2024-03-17T11:04:57;8.18;;;3.88;;
80273;SDS011;69576;51.902;-8.462;2024-03-17T11:07:33;5.22;;;2.42;;
80273;SDS011;69576;51.902;-8.462;2024-03-17T11:10:08;4.68;;;2.95;;
80273;SDS011;69576;51.902;-8.462;2024-03-17T11:17:55;7.70;;;2.65;;
80273;SDS011;69576;51.902;-8.462;2024-03-17T11:20:42;6.03;;;2.85;;
80273;SDS011;69576;51.902;-8.462;2024-03-17T11:23:27;8.10;;;3.67;;
80273;SDS011;69576;51.902;-8.462;2024-03-17T11:25:56;11.68;;;6.82;;
80273;SDS011;69576;51.902;-8.462;2024-03-17T11:34:06;6.35;;;2.25;;
80273;SDS011;69576;51.902;-8.462;2024-03-17T11:36:51;2.70;;;1.88;;
80273;SDS011;69576;51.902;-8.462;2024-03-17T11:39:18;7.10;;;1.80;;
80273;SDS011;69576;51.902;-8.462;2024-03-17T11:41:48;5.95;;;1.40;;
80273;SDS011;69576;51.902;-8.462;2024-03-17T11:46:56;5.85;;;1.70;;
80273;SDS011;69576;51.902;-8.462;2024-03-17T11:49:30;5.05;;;1.73;;
80273;SDS011;69576;51.902;-8.462;2024-03-17T11:54:43;5.25;;;1.23;;
80273;SDS011;69576;51.902;-8.462;2024-03-17T11:57:11;6.35;;;2.00;;
80273;SDS011;69576;51.902;-8.462;2024-03-17T11:59:38;6.20;;;1.95;;
80273;SDS011;69576;51.902;-8.462;2024-03-17T12:04:43;3.40;;;1.83;;
80273;SDS011;69576;51.902;-8.462;2024-03-17T12:07:12;4.20;;;1.40;;
80273;SDS011;69576;51.902;-8.462;2024-03-17T12:09:40;3.88;;;1.58;;
80273;SDS011;69576;51.902;-8.462;2024-03-17T12:12:11;7.90;;;2.38;;
80273;SDS011;69576;51.902;-8.462;2024-03-17T12:14:50;5.63;;;1.38;;
80273;SDS011;69576;51.902;-8.462;2024-03-17T12:17:20;7.68;;;1.83;;
80273;SDS011;69576;51.902;-8.462;2024-03-17T12:19:47;8.25;;;1.90;;
80273;SDS011;69576;51.902;-8.462;2024-03-17T12:22:17;6.63;;;1.67;;
80273;SDS011;69576;51.902;-8.462;2024-03-17T12:24:54;7.18;;;1.60;;
80273;SDS011;69576;51.902;-8.462;2024-03-17T12:27:27;3.03;;;1.30;;
80273;SDS011;69576;51.902;-8.462;2024-03-17T12:29:53;6.28;;;1.67;;
80273;SDS011;69576;51.902;-8.462;2024-03-17T12:32:21;3.28;;;1.65;;
80273;SDS011;69576;51.902;-8.462;2024-03-17T12:34:57;5.03;;;1.33;;
80273;SDS011;69576;51.902;-8.462;2024-03-17T12:37:26;6.90;;;1.80;;
80273;SDS011;69576;51.902;-8.462;2024-03-17T12:39:59;1.42;;;1.10;;
80273;SDS011;69576;51.902;-8.462;2024-03-17T12:42:26;4.43;;;1.40;;
80273;SDS011;69576;51.902;-8.462;2024-03-17T12:44:58;6.20;;;1.67;;
80273;SDS011;69576;51.902;-8.462;2024-03-17T12:47:28;4.25;;;1.17;;
80273;SDS011;69576;51.902;-8.462;2024-03-17T12:49:59;3.28;;;1.55;;
80273;SDS011;69576;51.902;-8.462;2024-03-17T12:54:58;5.13;;;1.17;;
80273;SDS011;69576;51.902;-8.462;2024-03-17T12:57:51;2.38;;;0.85;;
80273;SDS011;69576;51.902;-8.462;2024-03-17T13:00:44;4.22;;;1.63;;
80273;SDS011;69576;51.902;-8.462;2024-03-17T13:03:21;2.55;;;1.02;;
80273;SDS011;69576;51.902;-8.462;2024-03-17T13:05:52;2.28;;;1.27;;
80273;SDS011;69576;51.902;-8.462;2024-03-17T13:08:18;4.43;;;1.80;;
80273;SDS011;69576;51.902;-8.462;2024-03-17T13:10:44;2.83;;;1.67;;
80273;SDS011;69576;51.902;-8.462;2024-03-17T13:13:12;1.42;;;1.05;;
80273;SDS011;69576;51.902;-8.462;2024-03-17T13:15:40;5.57;;;1.60;;
80273;SDS011;69576;51.902;-8.462;2024-03-17T13:18:11;5.95;;;1.73;;
80273;SDS011;69576;51.902;-8.462;2024-03-17T13:20:44;4.38;;;1.50;;
80273;SDS011;69576;51.902;-8.462;2024-03-17T13:23:18;5.72;;;1.80;;
80273;SDS011;69576;51.902;-8.462;2024-03-17T13:25:46;2.63;;;1.48;;
80273;SDS011;69576;51.902;-8.462;2024-03-17T13:28:13;3.22;;;1.23;;
80273;SDS011;69576;51.902;-8.462;2024-03-17T13:30:41;4.95;;;2.10;;
80273;SDS011;69576;51.902;-8.462;2024-03-17T13:33:08;7.93;;;1.58;;
80273;SDS011;69576;51.902;-8.462;2024-03-17T13:35:40;4.32;;;1.38;;
80273;SDS011;69576;51.902;-8.462;2024-03-17T13:38:06;6.35;;;2.13;;
80273;SDS011;69576;51.902;-8.462;2024-03-17T13:40:34;3.53;;;1.33;;
80273;SDS011;69576;51.902;-8.462;2024-03-17T13:43:00;1.98;;;0.80;;
80273;SDS011;69576;51.902;-8.462;2024-03-17T13:45:28;3.75;;;1.30;;
80273;SDS011;69576;51.902;-8.462;2024-03-17T13:48:02;6.68;;;1.48;;
80273;SDS011;69576;51.902;-8.462;2024-03-17T13:50:35;8.20;;;1.90;;
80273;SDS011;69576;51.902;-8.462;2024-03-17T13:53:03;2.17;;;1.02;;
80273;SDS011;69576;51.902;-8.462;2024-03-17T13:55:29;8.05;;;1.67;;
80273;SDS011;69576;51.902;-8.462;2024-03-17T13:57:57;4.25;;;1.40;;
80273;SDS011;69576;51.902;-8.462;2024-03-17T14:00:29;6.32;;;1.73;;
80273;SDS011;69576;51.902;-8.462;2024-03-17T14:02:56;4.32;;;1.15;;
80273;SDS011;69576;51.902;-8.462;2024-03-17T14:05:23;7.53;;;1.52;;
80273;SDS011;69576;51.902;-8.462;2024-03-17T14:07:54;4.68;;;1.65;;
80273;SDS011;69576;51.902;-8.462;2024-03-17T14:10:21;8.10;;;1.83;;
80273;SDS011;69576;51.902;-8.462;2024-03-17T14:12:48;4.72;;;2.08;;
80273;SDS011;69576;51.902;-8.462;2024-03-17T14:15:16;6.28;;;2.40;;
80273;SDS011;69576;51.902;-8.462;2024-03-17T14:17:43;8.63;;;1.52;;
80273;SDS011;69576;51.902;-8.462;2024-03-17T14:20:10;7.43;;;2.67;;
80273;SDS011;69576;51.902;-8.462;2024-03-17T14:22:41;7.38;;;1.95;;
80273;SDS011;69576;51.902;-8.462;2024-03-17T14:25:08;7.80;;;2.47;;
80273;SDS011;69576;51.902;-8.462;2024-03-17T14:27:39;6.78;;;1.85;;
80273;SDS011;69576;51.902;-8.462;2024-03-17T14:30:08;10.90;;;3.10;;
80273;SDS011;69576;51.902;-8.462;2024-03-17T14:32:35;10.95;;;2.17;;
80273;SDS011;69576;51.902;-8.462;2024-03-17T14:35:01;7.57;;;1.55;;
80273;SDS011;69576;51.902;-8.462;2024-03-17T14:37:30;8.52;;;2.33;;
80273;SDS011;69576;51.902;-8.462;2024-03-17T14:39:56;5.43;;;1.48;;
80273;SDS011;69576;51.902;-8.462;2024-03-17T14:42:22;8.52;;;1.63;;
80273;SDS011;69576;51.902;-8.462;2024-03-17T14:44:48;4.53;;;1.90;;
80273;SDS011;69576;51.902;-8.462;2024-03-17T14:47:14;3.42;;;1.00;;
80273;SDS011;69576;51.902;-8.462;2024-03-17T14:49:42;6.10;;;2.70;;
80273;SDS011;69576;51.902;-8.462;2024-03-17T14:52:10;3.92;;;1.30;;
80273;SDS011;69576;51.902;-8.462;2024-03-17T14:54:38;8.65;;;1.58;;
80273;SDS011;69576;51.902;-8.462;2024-03-17T14:57:04;7.53;;;2.08;;
80273;SDS011;69576;51.902;-8.462;2024-03-17T14:59:32;3.55;;;1.58;;
80273;SDS011;69576;51.902;-8.462;2024-03-17T15:01:59;3.78;;;1.13;;
80273;SDS011;69576;51.902;-8.462;2024-03-17T15:04:24;1.08;;;0.85;;
80273;SDS011;69576;51.902;-8.462;2024-03-17T15:06:52;5.30;;;1.60;;
80273;SDS011;69576;51.902;-8.462;2024-03-17T15:09:19;5.38;;;1.77;;
80273;SDS011;69576;51.902;-8.462;2024-03-17T15:11:47;9.05;;;2.10;;
80273;SDS011;69576;51.902;-8.462;2024-03-17T15:16:43;6.43;;;1.70;;